createdAt,value
2022-11-09T12:47:48.672Z,13.24
2022-11-09T12:48:49.384Z,13.33
2022-11-09T12:49:50.195Z,13.41
2022-11-09T12:50:51.374Z,13.48
2022-11-09T12:51:54.357Z,13.56
2022-11-09T12:52:51.849Z,13.62
2022-11-09T12:53:53.693Z,13.69
2022-11-09T12:54:53.189Z,13.75
2022-11-09T12:55:55.112Z,13.80
2022-11-09T12:56:55.821Z,13.85
2022-11-09T12:58:00.436Z,13.90
2022-11-09T12:58:55.793Z,13.95
2022-11-09T12:59:57.656Z,13.99
2022-11-09T13:00:58.687Z,14.03
2022-11-09T13:01:59.474Z,14.06
2022-11-09T13:02:58.930Z,14.10
2022-11-09T13:03:59.245Z,14.13
2022-11-09T13:04:13.961Z,14.69
2022-11-09T13:05:15.533Z,14.69
2022-11-09T13:06:14.812Z,14.69
2022-11-09T13:07:16.037Z,14.70
2022-11-09T13:08:15.560Z,14.70
2022-11-09T13:09:16.088Z,14.70
2022-11-09T13:10:17.923Z,14.71
2022-11-09T13:11:19.047Z,14.71
2022-11-09T13:12:18.008Z,14.72
2022-11-09T13:13:18.642Z,14.72
2022-11-09T13:14:17.663Z,14.72
2022-11-09T13:15:19.106Z,14.71
2022-11-09T13:16:19.548Z,14.71
2022-11-09T13:17:18.534Z,14.71
2022-11-09T13:18:18.575Z,14.71
2022-11-09T13:19:19.117Z,14.70
2022-11-09T13:20:48.383Z,14.70
2022-11-09T13:21:19.479Z,14.69
2022-11-09T13:22:20.671Z,14.68
2022-11-09T13:23:31.451Z,14.67
2022-11-09T13:24:24.323Z,14.67
2022-11-09T13:25:21.172Z,14.66
2022-11-09T13:26:23.156Z,14.66
2022-11-09T13:26:33.842Z,14.59
2022-11-09T13:27:34.033Z,14.59
2022-11-09T13:28:35.046Z,14.59
2022-11-09T13:29:35.871Z,14.59
2022-11-09T13:30:35.495Z,14.58
2022-11-09T13:31:36.602Z,14.58
2022-11-09T13:32:36.058Z,14.58
2022-11-09T13:33:37.418Z,14.58
2022-11-09T13:34:36.422Z,14.58
2022-11-09T13:35:36.983Z,14.57
2022-11-09T13:36:37.767Z,14.57
2022-11-09T13:37:38.902Z,14.56
2022-11-09T13:38:38.670Z,14.55
2022-11-09T13:39:40.617Z,14.54
2022-11-09T13:40:40.476Z,14.53
2022-11-09T13:41:41.303Z,14.53
2022-11-09T13:42:42.882Z,14.52
2022-11-09T13:43:43.197Z,14.51
2022-11-09T13:44:44.610Z,14.50
2022-11-09T13:45:42.983Z,14.48
2022-11-09T13:46:44.253Z,14.47
2022-11-09T13:47:44.309Z,14.46
2022-11-09T13:48:03.683Z,14.30
2022-11-09T13:49:04.417Z,14.30
2022-11-09T13:50:05.283Z,14.30
2022-11-09T13:51:05.914Z,14.30
2022-11-09T13:52:07.344Z,14.30
2022-11-09T13:53:07.530Z,14.30
2022-11-09T13:54:07.517Z,14.29
2022-11-09T13:55:09.337Z,14.28
2022-11-09T13:56:09.142Z,14.28
2022-11-09T13:57:09.983Z,14.27
2022-11-09T13:58:11.781Z,14.26
2022-11-09T13:59:13.535Z,14.26
2022-11-09T14:00:22.733Z,14.25
2022-11-09T14:01:26.675Z,14.24
2022-11-09T14:02:27.519Z,14.23
2022-11-09T14:04:00.805Z,14.06
2022-11-09T14:04:40.373Z,14.06
2022-11-09T14:05:40.784Z,14.06
2022-11-09T14:06:44.198Z,14.06
2022-11-09T14:07:42.792Z,14.06
2022-11-09T14:08:43.019Z,14.06
2022-11-09T14:09:44.154Z,14.06
2022-11-09T14:10:44.043Z,14.06
2022-11-09T14:11:46.885Z,14.06
2022-11-09T14:14:05.992Z,14.07
2022-11-09T14:14:48.450Z,14.07
2022-11-09T14:15:03.878Z,14.07
2022-11-09T14:15:47.137Z,14.07
2022-11-09T14:16:50.800Z,14.07
2022-11-09T14:17:51.020Z,14.07
2022-11-09T14:18:55.113Z,14.06
2022-11-09T14:19:49.274Z,14.06
2022-11-09T14:20:49.700Z,14.06
2022-11-09T14:21:50.569Z,14.05
2022-11-09T14:22:51.392Z,14.05
2022-11-09T14:23:33.263Z,14.00
2022-11-09T14:24:33.576Z,14.00
2022-11-09T14:25:34.314Z,14.00
2022-11-09T14:26:38.849Z,14.00
2022-11-09T14:27:35.836Z,14.00
2022-11-09T14:28:37.533Z,14.00
2022-11-09T14:29:36.640Z,14.00
2022-11-09T14:30:38.276Z,14.00
2022-11-09T14:31:42.735Z,13.99
2022-11-09T14:32:38.716Z,13.99
2022-11-09T14:33:39.775Z,13.99
2022-11-09T14:34:39.538Z,13.99
2022-11-09T14:35:40.459Z,13.99
2022-11-09T14:37:01.872Z,13.98
2022-11-09T14:37:41.197Z,13.98
2022-11-09T14:38:41.343Z,13.98
2022-11-09T14:39:44.748Z,13.97
2022-11-09T14:40:42.439Z,13.97
2022-11-09T14:41:42.584Z,13.96
2022-11-09T14:43:08.834Z,13.96
2022-11-09T14:44:01.935Z,13.96
2022-11-09T14:44:46.277Z,13.96
2022-11-09T14:45:48.386Z,13.95
2022-11-09T14:46:46.992Z,13.95
2022-11-09T14:47:52.246Z,13.94
2022-11-09T14:51:51.561Z,13.80
2022-11-09T14:56:13.277Z,13.80
2022-11-09T15:00:31.330Z,13.80
2022-11-09T15:01:34.544Z,13.79
2022-11-09T15:05:56.337Z,13.79
2022-11-09T15:08:03.065Z,13.77
2022-11-09T15:12:19.476Z,13.76
2022-11-09T15:13:19.887Z,13.74
2022-11-09T15:14:20.663Z,13.73
2022-11-09T15:15:21.029Z,13.70
2022-11-09T15:16:21.641Z,13.68
2022-11-09T15:17:23.294Z,13.65
2022-11-09T15:18:23.868Z,13.62
2022-11-09T15:19:22.894Z,13.59
2022-11-09T15:20:24.407Z,13.56
2022-11-09T15:21:24.145Z,13.53
2022-11-09T15:22:25.685Z,13.51
2022-11-09T15:23:26.698Z,13.48
2022-11-09T15:24:26.067Z,13.46
2022-11-09T15:25:27.928Z,13.44
2022-11-09T15:26:28.896Z,13.42
2022-11-09T15:27:28.558Z,13.40
2022-11-09T15:31:48.063Z,13.37
2022-11-09T15:37:25.257Z,12.87
2022-11-09T15:39:21.802Z,12.86
2022-11-09T15:39:31.832Z,12.86
2022-11-09T15:40:46.795Z,12.86
2022-11-09T15:41:33.362Z,12.86
2022-11-09T15:43:44.071Z,12.86
2022-11-09T15:44:41.165Z,12.85
2022-11-09T15:45:49.368Z,12.84
2022-11-09T15:46:42.730Z,12.84
2022-11-09T15:48:45.719Z,12.83
2022-11-09T15:48:46.496Z,12.82
2022-11-09T15:51:40.727Z,12.81
2022-11-09T15:54:56.437Z,12.80
2022-11-09T15:55:57.396Z,12.77
2022-11-09T15:58:50.938Z,12.70
2022-11-09T16:00:09.484Z,12.66
2022-11-09T16:01:06.306Z,12.62
2022-11-09T16:02:55.068Z,12.54
2022-11-09T16:03:19.704Z,12.58
2022-11-09T16:04:07.401Z,12.51
2022-11-09T16:08:27.500Z,12.47
2022-11-09T16:10:38.765Z,12.44
2022-11-09T16:11:59.667Z,12.37
2022-11-09T16:18:44.824Z,12.29
2022-11-09T16:19:36.197Z,12.26
2022-11-09T16:19:42.391Z,12.32
2022-11-09T16:20:52.427Z,11.81
2022-11-09T16:21:52.316Z,11.81
2022-11-09T16:27:49.474Z,11.81
2022-11-09T16:29:02.809Z,11.80
2022-11-09T16:30:33.642Z,11.80
2022-11-09T16:31:50.884Z,11.80
2022-11-09T16:31:52.912Z,11.80
2022-11-09T16:32:29.757Z,11.79
2022-11-09T16:35:36.784Z,11.77
2022-11-09T16:37:43.927Z,11.76
2022-11-09T16:38:40.768Z,11.75
2022-11-09T16:39:32.198Z,11.77
2022-11-09T16:39:46.431Z,11.74
2022-11-09T16:48:10.342Z,11.54
2022-11-09T16:50:32.120Z,11.53
2022-11-09T16:50:34.664Z,11.54
2022-11-09T16:51:56.355Z,11.53
2022-11-09T16:53:26.511Z,11.52
2022-11-09T16:53:30.020Z,11.53
2022-11-09T16:54:13.709Z,11.52
2022-11-09T16:58:15.558Z,11.51
2022-11-09T16:59:53.540Z,11.51
2022-11-09T17:02:12.857Z,11.50
2022-11-09T17:02:21.136Z,11.49
2022-11-09T17:03:13.940Z,11.48
2022-11-09T17:04:55.891Z,11.35
2022-11-09T17:08:51.988Z,11.34
2022-11-09T17:08:55.492Z,11.35
2022-11-09T17:09:35.146Z,11.35
2022-11-09T17:10:54.039Z,11.34
2022-11-09T17:11:15.077Z,11.35
2022-11-09T17:12:04.580Z,11.35
2022-11-09T17:12:11.452Z,11.34
2022-11-09T17:15:04.873Z,11.33
2022-11-09T17:15:29.495Z,11.33
2022-11-09T17:18:14.778Z,11.32
2022-11-09T17:18:33.040Z,11.32
2022-11-09T17:19:02.519Z,11.31
2022-11-09T17:20:04.606Z,11.23
2022-11-09T17:21:03.898Z,11.23
2022-11-09T17:22:07.763Z,11.23
2022-11-09T17:23:05.514Z,11.23
2022-11-09T17:24:05.292Z,11.22
2022-11-09T17:25:07.861Z,11.22
2022-11-09T17:26:06.314Z,11.22
2022-11-09T17:27:06.523Z,11.21
2022-11-09T17:28:07.414Z,11.21
2022-11-09T17:29:08.840Z,11.20
2022-11-09T17:30:08.477Z,11.20
2022-11-09T17:31:15.300Z,11.19
2022-11-09T17:32:10.460Z,11.19
2022-11-09T17:33:13.257Z,11.18
2022-11-09T17:34:11.518Z,11.17
2022-11-09T17:35:11.347Z,11.16
2022-11-09T17:36:13.165Z,11.16
2022-11-09T17:37:13.065Z,11.15
2022-11-09T17:38:13.855Z,11.14
2022-11-09T17:39:14.739Z,11.13
2022-11-09T17:40:15.637Z,11.12
2022-11-09T17:41:16.464Z,11.11
2022-11-09T17:42:18.363Z,11.10
2022-11-09T17:43:18.262Z,11.09
2022-11-09T17:45:47.659Z,10.92
2022-11-09T17:46:47.338Z,10.92
2022-11-09T17:49:30.489Z,10.87
2022-11-09T17:52:48.480Z,10.84
2022-11-09T17:53:52.359Z,10.84
2022-11-09T17:54:50.035Z,10.84
2022-11-09T17:55:50.858Z,10.84
2022-11-09T17:56:52.390Z,10.84
2022-11-09T17:57:53.395Z,10.83
2022-11-09T17:58:52.635Z,10.83
2022-11-09T17:59:51.814Z,10.82
2022-11-09T18:00:55.394Z,10.82
2022-11-09T18:01:53.184Z,10.81
2022-11-09T18:02:58.584Z,10.80
2022-11-09T18:03:54.389Z,10.80
2022-11-09T18:04:55.229Z,10.79
2022-11-09T18:05:59.944Z,10.79
2022-11-09T18:06:56.874Z,10.78
2022-11-09T18:07:56.643Z,10.77
2022-11-09T18:09:25.894Z,10.76
2022-11-09T18:10:19.137Z,10.63
2022-11-09T18:11:19.977Z,10.63
2022-11-09T18:12:21.876Z,10.63
2022-11-09T18:13:21.794Z,10.63
2022-11-09T18:14:22.615Z,10.62
2022-11-09T18:15:23.512Z,10.62
2022-11-09T18:16:24.330Z,10.62
2022-11-09T18:17:25.178Z,10.62
2022-11-09T18:18:25.443Z,10.62
2022-11-09T18:19:43.698Z,10.61
2022-11-09T18:20:30.150Z,10.61
2022-11-09T18:21:44.574Z,10.61
2022-11-09T18:22:30.352Z,10.60
2022-11-09T18:23:37.076Z,10.60
2022-11-09T18:24:30.094Z,10.59
2022-11-09T18:25:29.061Z,10.59
2022-11-09T18:26:48.508Z,10.58
2022-11-09T18:27:31.014Z,10.58
2022-11-09T18:28:33.004Z,10.57
2022-11-09T18:34:28.154Z,10.48
2022-11-09T18:35:32.219Z,10.48
2022-11-09T18:38:47.346Z,10.45
2022-11-09T18:39:38.998Z,10.45
2022-11-09T18:40:42.083Z,10.44
2022-11-09T18:41:58.150Z,10.44
2022-11-09T18:42:48.333Z,10.43
2022-11-09T18:44:44.304Z,10.42
2022-11-09T18:45:43.122Z,10.42
2022-11-09T18:46:44.003Z,10.41
2022-11-09T18:47:49.991Z,10.40
2022-11-09T18:48:45.083Z,10.40
2022-11-09T18:49:47.407Z,10.39
2022-11-09T18:51:06.971Z,10.39
2022-11-09T18:52:26.269Z,10.39
2022-11-09T18:52:46.079Z,10.38
2022-11-09T18:53:47.371Z,10.38
2022-11-09T18:54:47.371Z,10.38
2022-11-09T19:00:12.566Z,10.34
2022-11-09T19:01:13.230Z,10.34
2022-11-09T19:02:51.706Z,10.34
2022-11-09T19:03:04.133Z,10.34
2022-11-09T19:05:51.558Z,10.34
2022-11-09T19:07:04.540Z,10.34
2022-11-09T19:07:14.285Z,10.34
2022-11-09T19:08:07.931Z,10.34
2022-11-09T19:09:08.796Z,10.33
2022-11-09T19:10:15.221Z,10.33
2022-11-09T19:11:09.776Z,10.34
2022-11-09T19:12:09.795Z,10.34
2022-11-09T19:14:41.982Z,10.31
2022-11-09T19:16:08.555Z,10.31
2022-11-09T19:16:49.384Z,10.31
2022-11-09T19:17:42.732Z,10.31
2022-11-09T19:18:43.652Z,10.31
2022-11-09T19:19:47.219Z,10.31
2022-11-09T19:20:44.334Z,10.30
2022-11-09T19:22:45.377Z,10.30
2022-11-09T19:26:44.254Z,10.30
2022-11-09T19:27:03.865Z,10.30
2022-11-09T19:27:47.574Z,10.30
2022-11-09T19:28:49.193Z,10.30
2022-11-09T19:29:49.124Z,10.31
2022-11-09T19:30:50.039Z,10.31
2022-11-09T19:36:29.136Z,10.22
2022-11-09T19:37:01.143Z,10.22
2022-11-09T19:38:06.243Z,10.22
2022-11-09T19:39:02.802Z,10.22
2022-11-09T19:40:03.995Z,10.21
2022-11-09T19:41:20.430Z,10.21
2022-11-09T19:42:05.795Z,10.22
2022-11-09T19:43:09.939Z,10.22
2022-11-09T19:44:04.107Z,10.23
2022-11-09T19:45:12.137Z,10.24
2022-11-09T19:47:07.364Z,10.25
2022-11-09T19:48:23.023Z,10.26
2022-11-09T19:48:47.048Z,10.25
2022-11-09T19:49:05.576Z,10.27
2022-11-09T19:50:06.063Z,10.27
2022-11-09T19:51:08.588Z,10.29
2022-11-09T19:52:07.171Z,10.30
2022-11-09T19:53:07.218Z,10.32
2022-11-09T19:54:15.854Z,10.34
2022-11-09T19:57:43.602Z,10.88
2022-11-09T19:58:41.253Z,10.88
2022-11-09T19:59:43.347Z,10.88
2022-11-09T20:00:42.086Z,10.88
2022-11-09T20:01:43.920Z,10.88
2022-11-09T20:02:44.877Z,10.88
2022-11-09T20:03:45.811Z,10.88
2022-11-09T20:04:44.892Z,10.88
2022-11-09T20:05:45.734Z,10.88
2022-11-09T20:06:48.355Z,10.88
2022-11-09T20:07:47.068Z,10.88
2022-11-09T20:08:47.878Z,10.88
2022-11-09T20:09:48.704Z,10.88
2022-11-09T20:10:51.814Z,10.88
2022-11-09T20:11:50.142Z,10.88
2022-11-09T20:12:58.460Z,10.88
2022-11-09T20:13:52.027Z,10.88
2022-11-09T20:14:54.970Z,10.88
2022-11-09T20:15:53.838Z,10.88
2022-11-09T20:16:45.083Z,10.83
2022-11-09T20:17:41.305Z,10.83
2022-11-09T20:23:08.167Z,10.83
2022-11-09T20:24:07.841Z,10.82
2022-11-09T20:25:06.431Z,10.82
2022-11-09T20:26:07.282Z,10.81
2022-11-09T20:27:21.206Z,10.80
2022-11-09T20:28:15.450Z,10.79
2022-11-09T20:29:26.576Z,10.78
2022-11-09T20:30:23.757Z,10.77
2022-11-09T20:31:18.583Z,10.76
2022-11-09T20:32:21.358Z,10.75
2022-11-09T20:33:51.706Z,10.66
2022-11-09T20:35:25.456Z,10.66
2022-11-09T20:35:47.049Z,10.66
2022-11-09T20:36:41.539Z,10.66
2022-11-09T20:37:42.377Z,10.67
2022-11-09T20:38:42.406Z,10.67
2022-11-09T20:39:42.639Z,10.67
2022-11-09T20:40:42.842Z,10.68
2022-11-09T20:41:44.286Z,10.68
2022-11-09T20:42:44.083Z,10.69
2022-11-09T20:43:44.114Z,10.70
2022-11-09T20:44:44.676Z,10.71
2022-11-09T20:45:45.100Z,10.71
2022-11-09T20:46:45.406Z,10.72
2022-11-09T20:48:10.463Z,10.73
2022-11-09T20:48:54.052Z,10.73
2022-11-09T20:49:46.840Z,10.74
2022-11-09T20:50:47.121Z,10.74
2022-11-09T20:51:48.057Z,10.74
2022-11-09T20:52:48.269Z,10.74
2022-11-09T20:53:49.076Z,10.75
2022-11-09T20:54:49.362Z,10.75
2022-11-09T20:55:49.416Z,10.75
2022-11-09T20:56:01.134Z,10.77
2022-11-09T20:57:01.938Z,10.77
2022-11-09T20:58:03.134Z,10.77
2022-11-09T20:59:02.549Z,10.77
2022-11-09T21:00:04.360Z,10.77
2022-11-09T21:01:34.290Z,10.82
2022-11-09T21:02:34.614Z,10.82
2022-11-09T21:03:36.011Z,10.82
2022-11-09T21:04:35.820Z,10.82
2022-11-09T21:05:37.695Z,10.82
2022-11-09T21:06:38.648Z,10.82
2022-11-09T21:07:37.787Z,10.82
2022-11-09T21:08:38.628Z,10.82
2022-11-09T21:09:39.547Z,10.82
2022-11-09T21:10:40.602Z,10.83
2022-11-09T21:11:39.747Z,10.82
2022-11-09T21:12:41.541Z,10.82
2022-11-09T21:13:41.775Z,10.82
2022-11-09T21:14:42.751Z,10.82
2022-11-09T21:15:42.529Z,10.82
2022-11-09T21:16:44.395Z,10.81
2022-11-09T21:16:56.217Z,10.74
2022-11-09T21:17:56.689Z,10.74
2022-11-09T21:18:56.963Z,10.74
2022-11-09T21:19:57.511Z,10.74
2022-11-09T21:20:59.477Z,10.74
2022-11-09T21:22:00.018Z,10.74
2022-11-09T21:22:59.876Z,10.75
2022-11-09T21:24:01.500Z,10.75
2022-11-09T21:25:01.906Z,10.75
2022-11-09T21:26:01.765Z,10.76
2022-11-09T21:27:01.936Z,10.76
2022-11-09T21:28:01.759Z,10.77
2022-11-09T21:29:02.626Z,10.77
2022-11-09T21:30:03.170Z,10.78
2022-11-09T21:31:03.129Z,10.79
2022-11-09T21:32:04.707Z,10.79
2022-11-09T21:33:04.624Z,10.79
2022-11-09T21:34:06.395Z,10.80
2022-11-09T21:35:05.661Z,10.80
2022-11-09T21:36:07.069Z,10.80
2022-11-09T21:36:24.600Z,10.76
2022-11-09T21:37:24.023Z,10.76
2022-11-09T21:38:24.919Z,10.75
2022-11-09T21:39:25.564Z,10.75
2022-11-09T21:40:26.181Z,10.75
2022-11-09T21:41:28.079Z,10.74
2022-11-09T21:42:28.666Z,10.73
2022-11-09T21:43:29.520Z,10.73
2022-11-09T21:44:28.558Z,10.72
2022-11-09T21:45:28.862Z,10.72
2022-11-09T21:46:29.707Z,10.72
2022-11-09T21:47:30.316Z,10.72
2022-11-09T21:48:32.138Z,10.72
2022-11-09T21:49:31.917Z,10.72
2022-11-09T21:50:33.452Z,10.72
2022-11-09T21:51:33.254Z,10.71
2022-11-09T21:51:48.519Z,10.66
2022-11-09T21:52:47.942Z,10.66
2022-11-09T21:53:48.270Z,10.66
2022-11-09T21:54:49.414Z,10.66
2022-11-09T21:55:49.145Z,10.65
2022-11-09T21:56:49.969Z,10.65
2022-11-09T21:57:50.845Z,10.65
2022-11-09T21:58:51.116Z,10.64
2022-11-09T21:59:54.710Z,10.64
2022-11-09T22:00:51.580Z,10.64
2022-11-09T22:01:51.798Z,10.64
2022-11-09T22:02:52.500Z,10.64
2022-11-09T22:03:52.838Z,10.64
2022-11-09T22:04:53.434Z,10.64
2022-11-09T22:05:54.256Z,10.64
2022-11-09T22:06:55.113Z,10.64
2022-11-09T22:07:07.369Z,10.71
2022-11-09T22:08:07.813Z,10.71
2022-11-09T22:09:08.112Z,10.71
2022-11-09T22:10:11.411Z,10.71
2022-11-09T22:11:09.929Z,10.71
2022-11-09T22:12:10.346Z,10.71
2022-11-09T22:13:11.163Z,10.71
2022-11-09T22:14:12.562Z,10.71
2022-11-09T22:15:14.479Z,10.72
2022-11-09T22:16:13.103Z,10.72
2022-11-09T22:17:13.628Z,10.71
2022-11-09T22:18:14.471Z,10.71
2022-11-09T22:19:14.893Z,10.70
2022-11-09T22:20:15.757Z,10.70
2022-11-09T22:20:31.561Z,10.56
2022-11-09T22:21:31.243Z,10.56
2022-11-09T22:22:33.095Z,10.56
2022-11-09T22:23:32.971Z,10.56
2022-11-09T22:24:33.835Z,10.56
2022-11-09T22:25:35.690Z,10.56
2022-11-09T22:26:36.551Z,10.57
2022-11-09T22:27:37.510Z,10.57
2022-11-09T22:28:36.618Z,10.58
2022-11-09T22:29:37.749Z,10.58
2022-11-09T22:30:37.242Z,10.58
2022-11-09T22:31:37.940Z,10.59
2022-11-09T22:32:38.534Z,10.59
2022-11-09T22:33:39.420Z,10.59
2022-11-09T22:33:56.844Z,10.64
2022-11-09T22:34:58.043Z,10.64
2022-11-09T22:35:57.474Z,10.64
2022-11-09T22:36:58.349Z,10.64
2022-11-09T22:37:58.460Z,10.64
2022-11-09T22:38:59.286Z,10.64
2022-11-09T22:40:00.809Z,10.64
2022-11-09T22:41:00.430Z,10.64
2022-11-09T22:42:02.274Z,10.64
2022-11-09T22:43:01.610Z,10.64
2022-11-09T22:44:03.509Z,10.64
2022-11-09T22:45:03.364Z,10.64
2022-11-09T22:45:13.878Z,10.72
2022-11-09T22:46:14.744Z,10.72
2022-11-09T22:47:14.944Z,10.73
2022-11-09T22:48:15.725Z,10.73
2022-11-09T22:49:18.365Z,10.73
2022-11-09T22:50:16.233Z,10.74
2022-11-09T22:51:16.678Z,10.74
2022-11-09T22:52:18.750Z,10.74
2022-11-09T22:53:18.521Z,10.74
2022-11-09T22:54:19.455Z,10.73
2022-11-09T22:55:19.008Z,10.73
2022-11-09T22:56:19.835Z,10.72
2022-11-09T22:57:20.685Z,10.72
2022-11-09T22:58:20.980Z,10.71
2022-11-09T22:59:21.790Z,10.70
2022-11-09T22:59:37.616Z,10.59
2022-11-09T23:00:37.795Z,10.59
2022-11-09T23:01:38.726Z,10.59
2022-11-09T23:02:39.472Z,10.59
2022-11-09T23:03:39.982Z,10.59
2022-11-09T23:04:40.806Z,10.59
2022-11-09T23:05:42.111Z,10.60
2022-11-09T23:06:47.978Z,10.60
2022-11-09T23:07:42.743Z,10.61
2022-11-09T23:08:42.872Z,10.61
2022-11-09T23:09:43.745Z,10.61
2022-11-09T23:10:45.974Z,10.62
2022-11-09T23:11:44.894Z,10.62
2022-11-09T23:12:45.725Z,10.63
2022-11-09T23:13:46.612Z,10.64
2022-11-09T23:14:09.005Z,10.75
2022-11-09T23:15:10.574Z,10.75
2022-11-09T23:16:12.463Z,10.75
2022-11-09T23:17:10.794Z,10.75
2022-11-09T23:18:10.502Z,10.75
2022-11-09T23:19:11.418Z,10.75
2022-11-09T23:20:12.749Z,10.75
2022-11-09T23:21:12.871Z,10.76
2022-11-09T23:22:14.707Z,10.76
2022-11-09T23:23:13.681Z,10.76
2022-11-09T23:24:15.506Z,10.76
2022-11-09T23:25:15.497Z,10.76
2022-11-09T23:26:16.345Z,10.76
2022-11-09T23:27:17.035Z,10.76
2022-11-09T23:28:18.906Z,10.76
2022-11-09T23:29:18.717Z,10.76
2022-11-09T23:29:37.292Z,10.66
2022-11-09T23:30:36.323Z,10.66
2022-11-09T23:31:35.002Z,10.67
2022-11-09T23:32:35.822Z,10.67
2022-11-09T23:33:39.017Z,10.67
2022-11-09T23:34:36.903Z,10.67
2022-11-09T23:35:37.371Z,10.66
2022-11-09T23:36:38.463Z,10.67
2022-11-09T23:37:39.191Z,10.67
2022-11-09T23:38:39.796Z,10.67
2022-11-09T23:39:40.102Z,10.67
2022-11-09T23:40:40.705Z,10.67
2022-11-09T23:41:41.095Z,10.67
2022-11-09T23:42:40.207Z,10.66
2022-11-09T23:43:45.006Z,10.66
2022-11-09T23:44:41.108Z,10.65
2022-11-09T23:45:42.776Z,10.65
2022-11-09T23:46:43.662Z,10.65
2022-11-09T23:47:44.167Z,10.65
2022-11-09T23:48:44.720Z,10.65
2022-11-09T23:49:43.775Z,10.65
2022-11-09T23:49:52.430Z,10.60
2022-11-09T23:50:54.420Z,10.60
2022-11-09T23:51:54.895Z,10.60
2022-11-09T23:52:55.285Z,10.60
2022-11-09T23:53:57.135Z,10.61
2022-11-09T23:54:56.033Z,10.61
2022-11-09T23:55:57.535Z,10.61
2022-11-09T23:56:58.215Z,10.61
2022-11-09T23:57:57.264Z,10.61
2022-11-09T23:58:59.192Z,10.61
2022-11-09T23:59:59.263Z,10.61
